createdAt,value
2023-05-10T04:13:13.377Z,100505.53
2023-05-10T04:16:23.214Z,100494.78
2023-05-10T04:19:34.948Z,100501.28
2023-05-10T04:22:43.288Z,100494.31
2023-05-10T04:25:51.027Z,100493.09
2023-05-10T04:28:59.663Z,100499.66
2023-05-10T04:32:06.962Z,100499.38
2023-05-10T04:35:17.107Z,100501.66
2023-05-10T04:38:24.683Z,100507.56
2023-05-10T04:41:33.480Z,100508.81
2023-05-10T04:44:40.121Z,100509.75
2023-05-10T04:47:48.917Z,100505.63
2023-05-10T04:50:56.621Z,100503.56
2023-05-10T04:54:06.594Z,100510.75
2023-05-10T04:57:15.779Z,100502.41
2023-05-10T05:00:21.707Z,100498.19
2023-05-10T05:03:27.063Z,100500.69
2023-05-10T05:06:33.415Z,100510.84
2023-05-10T05:09:40.155Z,100505.53
2023-05-10T05:12:43.748Z,100509.53
2023-05-10T05:15:49.737Z,100506.66
2023-05-10T05:18:55.870Z,100506.88
2023-05-10T05:22:00.984Z,100498.50
2023-05-10T05:25:08.689Z,100514.28
2023-05-10T05:28:15.877Z,100509.00
2023-05-10T05:31:22.389Z,100515.22
2023-05-10T05:34:28.213Z,100518.97
2023-05-10T05:37:37.205Z,100516.31
2023-05-10T05:40:46.442Z,100526.88
2023-05-10T05:43:53.031Z,100519.91
2023-05-10T05:46:59.552Z,100528.63
2023-05-10T05:50:06.768Z,100531.69
2023-05-10T05:53:14.958Z,100537.12
2023-05-10T05:56:26.493Z,100530.50
2023-05-10T05:59:32.099Z,100537.12
2023-05-10T06:02:41.510Z,100541.84
2023-05-10T06:05:48.669Z,100537.91
2023-05-10T06:08:57.070Z,100543.84
2023-05-10T06:12:05.345Z,100544.75
2023-05-10T06:15:13.292Z,100538.75
2023-05-10T06:18:21.146Z,100537.72
2023-05-10T06:21:29.403Z,100541.75
2023-05-10T06:24:40.446Z,100541.25
2023-05-10T06:27:51.150Z,100534.25
2023-05-10T06:31:02.601Z,100543.22
2023-05-10T06:34:10.137Z,100537.56
2023-05-10T06:37:17.520Z,100548.13
2023-05-10T06:40:24.359Z,100549.25
2023-05-10T06:43:32.611Z,100559.50
2023-05-10T06:46:40.005Z,100556.41
2023-05-10T06:49:43.240Z,100540.34
2023-05-10T06:52:47.539Z,100549.72
2023-05-10T06:56:15.628Z,100542.25
2023-05-10T06:59:20.891Z,100546.44
2023-05-10T07:02:28.718Z,100545.09
2023-05-10T07:05:35.819Z,100543.91
2023-05-10T07:08:44.444Z,100547.00
2023-05-10T07:11:50.467Z,100549.34
2023-05-10T07:14:56.851Z,100543.16
2023-05-10T07:18:02.439Z,100543.59
2023-05-10T07:21:10.041Z,100540.66
2023-05-10T07:24:17.543Z,100540.44
2023-05-10T07:27:22.333Z,100542.97
2023-05-10T07:30:27.373Z,100537.34
2023-05-10T07:33:34.637Z,100533.19
2023-05-10T07:36:39.936Z,100526.44
2023-05-10T07:39:44.684Z,100538.16
2023-05-10T07:42:50.964Z,100534.81
2023-05-10T07:45:59.638Z,100525.69
2023-05-10T07:49:06.681Z,100524.63
2023-05-10T07:52:16.138Z,100527.25
2023-05-10T07:55:24.602Z,100516.91
2023-05-10T07:58:32.961Z,100523.25
2023-05-10T08:01:40.078Z,100522.84
2023-05-10T08:04:45.356Z,100528.75
2023-05-10T08:07:54.123Z,100530.56
2023-05-10T08:10:59.807Z,100526.28
2023-05-10T08:14:05.120Z,100528.22
2023-05-10T08:17:11.970Z,100533.31
2023-05-10T08:20:20.407Z,100526.47
2023-05-10T08:23:25.159Z,100520.97
2023-05-10T08:26:31.864Z,100518.87
2023-05-10T08:29:49.005Z,100531.66
2023-05-10T08:32:54.353Z,100531.56
2023-05-10T08:35:58.822Z,100530.50
2023-05-10T08:39:03.451Z,100523.53
2023-05-10T08:42:09.764Z,100525.37
2023-05-10T08:45:15.597Z,100531.19
2023-05-10T08:48:24.490Z,100517.03
2023-05-10T08:51:31.135Z,100530.88
2023-05-10T08:54:35.906Z,100524.13
2023-05-10T08:57:42.313Z,100522.91
2023-05-10T09:00:49.243Z,100523.16
2023-05-10T09:03:55.515Z,100523.50
2023-05-10T09:07:00.639Z,100516.75
2023-05-10T09:10:08.345Z,100518.63
2023-05-10T09:13:20.264Z,100514.97
2023-05-10T09:16:25.588Z,100517.06
2023-05-10T09:19:29.888Z,100525.84
2023-05-10T09:22:35.797Z,100520.38
2023-05-10T09:25:43.588Z,100523.78
2023-05-10T09:28:59.424Z,100515.37
2023-05-10T09:32:05.687Z,100513.78
2023-05-10T09:35:19.961Z,100513.69
2023-05-10T09:38:26.593Z,100514.72
2023-05-10T09:41:36.115Z,100514.94
2023-05-10T09:44:46.480Z,100509.38
2023-05-10T09:47:52.943Z,100507.03
2023-05-10T09:51:00.542Z,100507.09
2023-05-10T09:54:16.358Z,100505.66
2023-05-10T09:57:23.453Z,100499.41
2023-05-10T10:00:29.879Z,100496.50
2023-05-10T10:03:34.800Z,100494.06
2023-05-10T10:06:40.600Z,100497.47
2023-05-10T10:09:46.483Z,100491.06
2023-05-10T10:12:51.325Z,100491.97
2023-05-10T10:15:56.548Z,100479.75
2023-05-10T10:19:03.149Z,100486.97
2023-05-10T10:22:09.328Z,100479.53
2023-05-10T10:25:16.689Z,100478.91
2023-05-10T10:28:34.990Z,100478.78
2023-05-10T10:31:50.762Z,100466.69
2023-05-10T10:34:58.120Z,100470.97
2023-05-10T10:38:02.556Z,100487.97
2023-05-10T10:41:14.433Z,100468.88
2023-05-10T10:44:35.710Z,100473.81
2023-05-10T10:47:40.480Z,100448.81
2023-05-10T10:50:47.518Z,100458.88
2023-05-10T10:53:50.624Z,100456.72
2023-05-10T10:57:16.238Z,100449.25
2023-05-10T11:00:24.877Z,100436.00
2023-05-10T11:03:29.978Z,100443.84
2023-05-10T11:06:35.881Z,100435.62
2023-05-10T11:09:41.594Z,100433.00
2023-05-10T11:13:13.559Z,100428.88
2023-05-10T11:16:31.243Z,100427.59
2023-05-10T11:19:35.978Z,100419.69
2023-05-10T11:23:11.286Z,100417.88
2023-05-10T11:26:15.075Z,100417.00
2023-05-10T11:29:18.522Z,100407.34
2023-05-10T11:32:24.128Z,100402.22
2023-05-10T11:35:31.027Z,100407.81
2023-05-10T11:38:36.194Z,100397.31
2023-05-10T11:41:43.034Z,100403.72
2023-05-10T11:44:50.686Z,100394.75
2023-05-10T11:48:00.402Z,100394.06
2023-05-10T11:51:05.375Z,100405.44
2023-05-10T11:54:12.759Z,100400.66
2023-05-10T11:57:17.328Z,100391.31
2023-05-10T12:00:23.327Z,100401.56
2023-05-10T12:03:29.814Z,100401.25
2023-05-10T12:06:42.256Z,100404.19
2023-05-10T12:10:09.528Z,100408.31
2023-05-10T12:13:17.066Z,100402.13
2023-05-10T12:16:25.333Z,100399.31
2023-05-10T12:19:29.463Z,100393.16
2023-05-10T12:22:36.782Z,100394.66
2023-05-10T12:25:42.764Z,100395.56
2023-05-10T12:28:47.455Z,100396.06
2023-05-10T12:32:01.068Z,100391.50
2023-05-10T12:35:05.461Z,100395.41
2023-05-10T12:38:31.951Z,100378.69
2023-05-10T12:41:37.886Z,100374.00
2023-05-10T12:44:42.481Z,100386.59
2023-05-10T12:47:47.066Z,100379.22
2023-05-10T12:50:52.823Z,100385.94
2023-05-10T12:54:00.119Z,100367.84
2023-05-10T12:57:05.712Z,100368.03
2023-05-10T13:00:13.056Z,100373.88
2023-05-10T13:03:18.410Z,100368.44
2023-05-10T13:06:25.726Z,100358.72
2023-05-10T13:09:32.409Z,100346.19
2023-05-10T13:12:38.520Z,100356.19
2023-05-10T13:15:45.076Z,100348.94
2023-05-10T13:18:53.750Z,100351.84
2023-05-10T13:22:01.416Z,100338.06
2023-05-10T13:25:08.547Z,100350.28
2023-05-10T13:28:18.561Z,100338.69
2023-05-10T13:31:28.215Z,100335.69
2023-05-10T13:34:36.169Z,100320.97
2023-05-10T13:37:45.262Z,100317.56
2023-05-10T13:40:55.390Z,100318.03
2023-05-10T13:44:06.147Z,100311.84
2023-05-10T13:47:15.809Z,100309.81
2023-05-10T13:50:24.799Z,100317.63
2023-05-10T13:53:33.640Z,100316.38
2023-05-10T13:56:41.208Z,100316.72
2023-05-10T13:59:47.752Z,100309.72
2023-05-10T14:02:54.853Z,100303.31
2023-05-10T14:06:01.323Z,100286.50
2023-05-10T14:09:06.986Z,100291.34
2023-05-10T14:12:14.823Z,100291.47
2023-05-10T14:15:22.673Z,100288.59
2023-05-10T14:18:29.049Z,100276.84
2023-05-10T14:21:36.477Z,100278.38
2023-05-10T14:24:50.170Z,100276.59
2023-05-10T14:27:56.498Z,100282.75
2023-05-10T14:31:04.300Z,100275.91
2023-05-10T14:34:22.262Z,100266.44
2023-05-10T14:37:33.088Z,100270.69
2023-05-10T14:40:42.559Z,100272.94
2023-05-10T14:43:51.276Z,100268.38
2023-05-10T14:47:00.920Z,100275.44
2023-05-10T14:50:07.810Z,100278.34
2023-05-10T14:53:13.837Z,100284.41
2023-05-10T14:56:24.583Z,100276.00
2023-05-10T14:59:33.921Z,100275.28
2023-05-10T15:02:40.813Z,100281.66
2023-05-10T15:05:47.154Z,100273.50
2023-05-10T15:08:54.308Z,100278.66
2023-05-10T15:12:03.322Z,100278.91
2023-05-10T15:15:12.667Z,100281.75
2023-05-10T15:22:06.203Z,100285.94
2023-05-10T15:25:15.530Z,100275.34
2023-05-10T15:28:24.639Z,100271.84
2023-05-10T15:35:13.017Z,100277.81
